Time;durP1;ratioP1;P1;durP2;ratioP2;P2;SDS_P1;SDS_P2;PMS_P1;PMS_P2;Temp;Humidity;BMP_temperature;BMP_pressure;BME280_temperature;BME280_humidity;BME280_pressure;Samples;Min_cycle;Max_cycle;Signal;HPM_P1;HPM_P2
2022/04/09 00:01:22;;;;;;;;;;;3.50;99.90;;;1.76;100.00;99900.66;2569964;30;138037;-42
2022/04/09 00:03:50;;;;;;;;;;;3.50;99.90;;;1.76;100.00;99907.91;2569366;30;138252;-42
2022/04/09 00:06:17;;;;;;;;;;;3.50;99.90;;;1.80;100.00;99915.41;2570074;30;138024;-43
2022/04/09 00:08:45;;;;;;;;;;;3.50;99.90;;;1.75;100.00;99914.28;2567146;30;138411;-41
2022/04/09 00:11:13;;;;;;;;;;;3.50;99.90;;;1.74;100.00;99928.75;2569511;30;138081;-42
2022/04/09 00:13:41;;;;;;;;;;;3.50;99.90;;;1.78;100.00;99922.00;2570209;30;137028;-41
2022/04/09 00:16:08;;;;;;;;;;;3.50;99.90;;;1.81;100.00;99932.41;2569818;30;137082;-42
2022/04/09 00:18:36;;;;;;;;;;;3.50;99.90;;;1.82;100.00;99940.28;2569717;30;137236;-42
2022/04/09 00:21:04;;;;;;;;;;;3.50;99.90;;;1.78;100.00;99936.28;2569295;30;137151;-41
2022/04/09 00:23:31;;;;;;;;;;;3.50;99.90;;;1.79;100.00;99951.41;2569785;30;138522;-41
2022/04/09 00:25:58;;;;;;;;;;;3.50;99.90;;;1.89;100.00;99953.06;2568937;30;137802;-42
2022/04/09 00:28:26;;;;;;;;;;;3.60;99.90;;;1.84;100.00;99956.25;2570173;30;137387;-41
2022/04/09 00:30:58;;;;;;;;;;;3.60;99.90;;;1.85;100.00;99961.44;2565747;30;136869;-42
2022/04/09 00:33:25;;;;;;;;;;;3.60;99.90;;;1.80;100.00;99966.53;2570217;30;138510;-41
2022/04/09 00:35:57;;;;;;;;;;;3.60;99.90;;;1.75;100.00;99974.28;2568062;30;137211;-42
2022/04/09 00:38:26;;;;;;;;;;;3.50;99.90;;;1.76;100.00;99984.03;2570710;30;138021;-41
2022/04/09 00:40:53;;;;;;;;;;;3.50;99.90;;;1.75;100.00;99982.34;2570646;30;137037;-41
2022/04/09 00:43:21;;;;;;;;;;;3.50;99.90;;;1.76;100.00;99981.34;2572053;30;138259;-43
2022/04/09 00:45:50;;;;;;;;;;;3.50;99.90;;;1.71;100.00;99992.63;2567228;30;137024;-42
2022/04/09 00:48:21;;;;;;;;;;;3.50;99.90;;;1.72;100.00;100001.53;2571179;30;137237;-41
2022/04/09 00:50:48;;;;;;;;;;;3.50;99.90;;;1.70;100.00;99999.00;2570395;30;137944;-41
2022/04/09 00:53:21;;;;;;;;;;;3.50;99.90;;;1.74;100.00;100006.75;2569139;30;139099;-41
2022/04/09 00:58:38;;;;;;;;;;;3.50;99.90;;;1.73;100.00;100019.34;2567723;30;139015;-41
2022/04/09 01:01:05;;;;;;;;;;;3.50;99.90;;;1.65;100.00;100024.78;2569840;30;139683;-42
2022/04/09 01:03:34;;;;;;;;;;;3.40;99.90;;;1.64;100.00;100031.16;2569134;30;139021;-42
2022/04/09 01:06:01;;;;;;;;;;;3.40;99.90;;;1.58;100.00;100030.81;2570206;30;137596;-41
2022/04/09 01:08:29;;;;;;;;;;;3.40;99.90;;;1.56;100.00;100040.91;2570029;30;138207;-42
2022/04/09 01:10:57;;;;;;;;;;;3.40;99.90;;;1.57;100.00;100044.44;2567527;30;139363;-41
2022/04/09 01:13:25;;;;;;;;;;;3.30;99.90;;;1.50;100.00;100051.53;2571060;30;138472;-41
2022/04/09 01:15:53;;;;;;;;;;;3.30;99.90;;;1.54;100.00;100052.88;2569705;30;139555;-41
2022/04/09 01:18:21;;;;;;;;;;;3.30;99.90;;;1.49;100.00;100048.00;2568112;30;139289;-41
2022/04/09 01:20:58;;;;;;;;;;;3.30;99.90;;;1.53;100.00;100062.75;2570987;30;138065;-42
2022/04/09 01:23:27;;;;;;;;;;;3.30;99.90;;;1.60;100.00;100057.53;2565911;30;141284;-41
2022/04/09 01:25:58;;;;;;;;;;;3.30;99.90;;;1.59;100.00;100063.94;2571000;30;137058;-41
2022/04/09 01:28:26;;;;;;;;;;;3.30;99.90;;;1.54;100.00;100067.13;2567545;30;138645;-42
2022/04/09 01:30:54;;;;;;;;;;;3.30;99.90;;;1.49;100.00;100071.38;2568998;30;139508;-41
2022/04/09 01:33:22;;;;;;;;;;;3.30;99.90;;;1.60;100.00;100080.94;2569765;30;138931;-41
2022/04/09 01:35:50;;;;;;;;;;;3.30;99.90;;;1.66;100.00;100085.59;2569000;30;137244;-41
2022/04/09 01:38:19;;;;;;;;;;;3.40;99.90;;;1.55;100.00;100082.25;2569765;30;139749;-41
2022/04/09 01:43:28;;;;;;;;;;;3.30;99.90;;;1.62;100.00;100097.72;2566482;30;154881;-40
2022/04/09 01:45:56;;;;;;;;;;;3.40;99.90;;;1.65;100.00;100118.91;2567415;30;139774;-40
2022/04/09 01:48:23;;;;;;;;;;;3.40;99.90;;;1.68;100.00;100115.84;2566433;30;139582;-40
2022/04/09 01:50:52;;;;;;;;;;;3.40;99.90;;;1.64;100.00;100122.59;2567711;30;138316;-40
2022/04/09 01:53:20;;;;;;;;;;;3.40;99.90;;;1.69;100.00;100130.97;2566398;30;138798;-40
2022/04/09 01:55:48;;;;;;;;;;;3.40;99.90;;;1.68;100.00;100129.31;2568496;30;138097;-40
2022/04/09 01:58:15;;;;;;;;;;;3.40;99.90;;;1.61;100.00;100145.28;2566890;30;138683;-40
2022/04/09 02:00:46;;;;;;;;;;;3.40;99.90;;;1.58;100.00;100138.38;2566804;30;140560;-40
2022/04/09 02:03:14;;;;;;;;;;;3.40;99.90;;;1.61;100.00;100141.75;2566635;30;138472;-40
2022/04/09 02:05:42;;;;;;;;;;;3.30;99.90;;;1.60;100.00;100146.28;2567220;30;139008;-40
2022/04/09 02:08:10;;;;;;;;;;;3.40;99.90;;;1.70;100.00;100154.19;2567590;30;137292;-40
2022/04/09 02:10:37;;;;;;;;;;;3.40;99.90;;;1.76;100.00;100155.34;2566581;30;140608;-40
2022/04/09 02:13:18;;;;;;;;;;;3.40;99.90;;;1.79;100.00;100157.69;2567805;30;138097;-40
2022/04/09 02:15:46;;;;;;;;;;;3.50;99.90;;;1.87;100.00;100160.34;2567605;30;140384;-40
2022/04/09 02:18:14;;;;;;;;;;;3.50;99.90;;;1.85;100.00;100163.22;2568237;30;137704;-41
2022/04/09 02:20:41;;;;;;;;;;;3.60;99.90;;;1.93;100.00;100164.22;2566809;30;140652;-40
2022/04/09 02:23:09;;;;;;;;;;;3.60;99.90;;;1.93;100.00;100172.28;2567636;30;139169;-40
2022/04/09 02:25:37;;;;;;;;;;;3.60;99.90;;;1.86;100.00;100180.19;2567255;30;138804;-40
2022/04/09 02:28:06;;;;;;;;;;;3.60;99.90;;;1.81;100.00;100183.41;2567436;30;138127;-40
2022/04/09 02:30:33;;;;;;;;;;;3.60;99.90;;;1.78;100.00;100189.13;2568021;30;138239;-40
2022/04/09 02:33:04;;;;;;;;;;;3.50;99.90;;;1.74;100.00;100198.53;2567262;30;137590;-40
2022/04/09 02:35:36;;;;;;;;;;;3.50;99.90;;;1.69;100.00;100195.53;2567796;30;139424;-40
2022/04/09 02:38:07;;;;;;;;;;;3.50;99.90;;;1.69;100.00;100206.28;2568011;30;138453;-40
2022/04/09 02:40:34;;;;;;;;;;;3.40;99.90;;;1.74;100.00;100203.09;2568244;30;138306;-40
2022/04/09 02:43:02;;;;;;;;;;;3.50;99.90;;;1.71;100.00;100215.03;2567405;30;139456;-40
2022/04/09 02:45:30;;;;;;;;;;;3.40;99.90;;;1.83;100.00;100227.09;2568268;30;139068;-40
2022/04/09 02:47:57;;;;;;;;;;;3.50;99.90;;;1.83;100.00;100221.72;2564398;30;137066;-40
2022/04/09 02:50:29;;;;;;;;;;;3.50;99.90;;;1.80;100.00;100224.75;2566960;30;139607;-41
2022/04/09 02:52:56;;;;;;;;;;;3.50;99.90;;;1.82;100.00;100232.66;2567105;30;136623;-40
2022/04/09 02:55:25;;;;;;;;;;;3.50;99.90;;;1.75;100.00;100237.88;2566150;30;137821;-40
2022/04/09 02:57:53;;;;;;;;;;;3.50;99.90;;;1.74;100.00;100228.13;2567205;30;138733;-40
2022/04/09 03:00:25;;;;;;;;;;;3.50;99.90;;;1.69;100.00;100242.06;2566678;30;138451;-40
2022/04/09 03:02:59;;;;;;;;;;;3.50;99.90;;;1.72;100.00;100240.91;2566323;30;139934;-41
2022/04/09 03:05:35;;;;;;;;;;;3.50;99.90;;;1.67;100.00;100256.72;2566644;30;138230;-40
2022/04/09 03:08:06;;;;;;;;;;;3.40;99.90;;;1.72;100.00;100263.28;2567207;30;137056;-40
2022/04/09 03:10:33;;;;;;;;;;;3.40;99.90;;;1.76;100.00;100263.78;2567598;30;138281;-40
2022/04/09 03:13:00;;;;;;;;;;;3.50;99.90;;;1.80;100.00;100265.09;2566015;30;137004;-40
2022/04/09 03:15:29;;;;;;;;;;;3.50;99.90;;;1.81;100.00;100266.78;2568804;30;137334;-40
2022/04/09 03:17:57;;;;;;;;;;;3.50;99.90;;;1.82;100.00;100276.53;2568252;30;138570;-40
2022/04/09 03:20:26;;;;;;;;;;;3.50;99.90;;;1.84;100.00;100282.59;2568839;30;140158;-40
2022/04/09 03:22:55;;;;;;;;;;;3.50;99.90;;;1.87;100.00;100289.50;2568013;30;139309;-40
2022/04/09 03:25:34;;;;;;;;;;;3.60;99.90;;;1.91;100.00;100288.13;2568701;30;139763;-40
2022/04/09 03:28:03;;;;;;;;;;;3.60;99.90;;;1.96;100.00;100288.47;2567882;30;137090;-40
2022/04/09 03:30:33;;;;;;;;;;;3.60;99.90;;;1.96;100.00;100293.03;2565526;30;137079;-40
2022/04/09 03:33:01;;;;;;;;;;;3.60;99.90;;;1.97;100.00;100295.53;2567597;30;137932;-40
2022/04/09 03:35:34;;;;;;;;;;;3.70;99.90;;;1.98;100.00;100297.22;2568338;30;138319;-40
2022/04/09 03:38:02;;;;;;;;;;;3.70;99.90;;;2.09;100.00;100301.41;2566114;30;138363;-40
2022/04/09 03:40:40;;;;;;;;;;;3.70;99.90;;;2.18;100.00;100304.94;2567848;30;140299;-41
2022/04/09 03:43:08;;;;;;;;;;;3.80;99.90;;;2.28;100.00;100313.69;2568143;30;138967;-40
2022/04/09 03:45:36;;;;;;;;;;;3.90;99.90;;;2.27;100.00;100311.16;2566999;30;137227;-40
2022/04/09 03:48:06;;;;;;;;;;;3.90;99.90;;;2.30;100.00;100319.75;2566778;30;137785;-40
2022/04/09 03:50:37;;;;;;;;;;;4.00;99.90;;;2.36;100.00;100326.28;2567844;30;139178;-40
2022/04/09 03:53:06;;;;;;;;;;;4.00;99.90;;;2.37;100.00;100332.50;2566983;30;138085;-40
2022/04/09 03:55:34;;;;;;;;;;;4.00;99.90;;;2.41;100.00;100345.47;2568036;30;139323;-39
2022/04/09 03:58:04;;;;;;;;;;;4.00;99.90;;;2.46;100.00;100341.44;2565899;30;138777;-40
2022/04/09 04:00:32;;;;;;;;;;;4.10;99.90;;;2.43;100.00;100351.53;2566932;30;140008;-39
2022/04/09 04:03:00;;;;;;;;;;;4.10;99.90;;;2.46;100.00;100352.19;2567236;30;136999;-40
2022/04/09 04:05:32;;;;;;;;;;;4.10;99.90;;;2.46;100.00;100341.44;2567555;30;139614;-40
2022/04/09 04:08:00;;;;;;;;;;;4.10;99.90;;;2.51;100.00;100339.06;2567403;30;138351;-40
2022/04/09 04:10:28;;;;;;;;;;;4.20;99.90;;;2.50;100.00;100343.59;2567992;30;140165;-40
2022/04/09 04:13:11;;;;;;;;;;;4.10;99.90;;;2.54;100.00;100346.78;2565104;30;138244;-40
2022/04/09 04:15:40;;;;;;;;;;;4.20;99.90;;;2.51;100.00;100347.13;2565876;30;140169;-40
2022/04/09 04:18:08;;;;;;;;;;;4.20;99.90;;;2.50;100.00;100354.34;2568107;30;138079;-40
2022/04/09 04:20:39;;;;;;;;;;;4.20;99.90;;;2.44;100.00;100355.91;2565938;30;141936;-40
2022/04/09 04:23:07;;;;;;;;;;;4.10;99.90;;;2.41;100.00;100360.78;2565651;30;137564;-40
2022/04/09 04:25:34;;;;;;;;;;;4.10;99.90;;;2.31;100.00;100366.34;2567742;30;139513;-40
2022/04/09 04:28:03;;;;;;;;;;;4.00;99.90;;;2.25;100.00;100377.78;2567574;30;137125;-40
2022/04/09 04:30:30;;;;;;;;;;;4.00;99.90;;;2.22;100.00;100378.97;2566301;30;138517;-40
2022/04/09 04:32:58;;;;;;;;;;;3.90;99.90;;;2.13;100.00;100379.97;2567234;30;138863;-40
2022/04/09 04:35:35;;;;;;;;;;;3.90;99.90;;;2.08;100.00;100380.47;2565803;30;138551;-40
2022/04/09 04:38:03;;;;;;;;;;;3.80;99.90;;;2.10;100.00;100386.53;2567293;30;137198;-40
2022/04/09 04:40:33;;;;;;;;;;;3.80;99.90;;;2.08;100.00;100387.72;2567262;30;140284;-40
2022/04/09 07:41:42;;;;;;;;;;;3.80;99.90;;;6.04;84.60;100663.94;530705;30;2234721454;31
2022/04/09 07:44:10;;;;;;;;;;;7.50;99.90;;;6.11;86.13;100662.19;2572905;30;138396;-39
2022/04/09 07:46:37;;;;;;;;;;;7.50;99.90;;;6.24;84.32;100669.66;2569090;30;137833;-42
2022/04/09 07:49:05;;;;;;;;;;;7.60;99.90;;;6.43;83.79;100668.22;2569193;30;137853;-42
2022/04/09 07:51:32;;;;;;;;;;;7.80;99.90;;;6.58;82.61;100675.47;2569443;30;136960;-42
2022/04/09 07:54:00;;;;;;;;;;;7.90;99.90;;;6.68;82.11;100680.59;2569517;30;139170;-41
2022/04/09 07:56:27;;;;;;;;;;;8.00;99.90;;;6.86;80.42;100694.59;2568870;30;137314;-41
2022/04/09 07:58:54;;;;;;;;;;;8.20;99.90;;;6.99;80.18;100687.63;2568638;30;137733;-41
2022/04/09 08:01:22;;;;;;;;;;;8.30;99.90;;;7.22;80.10;100692.03;2568544;30;138110;-41
2022/04/09 08:03:49;;;;;;;;;;;8.50;99.90;;;7.36;76.67;100693.00;2566424;30;139378;-41
2022/04/09 08:06:17;;;;;;;;;;;8.70;99.90;;;7.52;77.11;100703.59;2570508;30;137287;-42
2022/04/09 08:08:44;;;;;;;;;;;8.80;99.90;;;7.59;77.11;100696.34;2570549;30;139192;-42
2022/04/09 08:11:11;;;;;;;;;;;8.90;99.90;;;7.74;76.33;100703.59;2568117;30;136974;-41
2022/04/09 08:13:39;;;;;;;;;;;9.00;99.90;;;8.00;76.08;100704.81;2568702;30;137520;-42
2022/04/09 08:16:07;;;;;;;;;;;9.30;99.90;;;8.10;75.46;100712.63;2569948;30;137074;-42
2022/04/09 08:18:34;;;;;;;;;;;9.40;99.90;;;8.07;74.57;100713.84;2569410;30;137203;-42
2022/04/09 08:21:04;;;;;;;;;;;9.40;99.90;;;7.77;76.63;100716.75;2571061;30;137880;-41
2022/04/09 08:23:31;;;;;;;;;;;9.30;99.90;;;7.29;80.11;100725.50;2568470;30;137186;-41
2022/04/09 08:26:00;;;;;;;;;;;9.00;99.90;;;7.04;84.52;100724.00;2567905;30;137296;-40
2022/04/09 08:28:31;;;;;;;;;;;8.70;99.90;;;6.80;86.96;100729.75;2570371;30;137442;-41
2022/04/09 08:30:59;;;;;;;;;;;8.50;99.90;;;6.61;85.54;100727.44;2568852;30;137845;-42
2022/04/09 08:33:27;;;;;;;;;;;8.30;99.90;;;6.44;84.87;100724.09;2569624;30;136737;-41
2022/04/09 08:35:54;;;;;;;;;;;8.10;99.90;;;6.22;81.17;100731.28;2570334;30;137267;-42
2022/04/09 08:38:22;;;;;;;;;;;7.90;99.90;;;6.04;83.03;100734.34;2569382;30;138428;-41
2022/04/09 08:40:50;;;;;;;;;;;7.70;99.90;;;5.88;81.94;100740.75;2570382;30;137258;-41
2022/04/09 08:43:18;;;;;;;;;;;7.60;99.90;;;6.01;84.49;100740.13;2570536;30;138506;-41
2022/04/09 08:45:45;;;;;;;;;;;7.50;99.90;;;6.24;82.75;100737.38;2568723;30;137444;-41
2022/04/09 08:48:14;;;;;;;;;;;7.70;99.90;;;6.51;82.57;100737.75;2569093;30;138146;-41
2022/04/09 08:50:45;;;;;;;;;;;7.80;99.90;;;6.71;83.08;100745.28;2569181;30;136911;-42
2022/04/09 08:53:12;;;;;;;;;;;8.00;99.90;;;7.00;84.74;100749.84;2569889;30;140349;-41
2022/04/09 08:55:45;;;;;;;;;;;8.20;99.90;;;7.24;81.43;100738.81;2569883;30;138345;-41
2022/04/09 08:58:13;;;;;;;;;;;8.50;99.90;;;7.46;80.48;100753.25;2568385;30;137340;-41
2022/04/09 09:00:42;;;;;;;;;;;8.70;99.90;;;7.73;81.42;100757.03;2569472;30;137228;-41
2022/04/09 09:03:10;;;;;;;;;;;8.90;99.90;;;7.84;77.74;100744.81;2569617;30;137063;-41
2022/04/09 09:05:45;;;;;;;;;;;9.10;99.90;;;7.95;77.13;100757.03;2567657;30;137013;-42
2022/04/09 09:08:16;;;;;;;;;;;9.20;99.90;;;8.02;75.88;100759.78;2571991;30;137358;-42
2022/04/09 09:10:43;;;;;;;;;;;9.30;99.90;;;8.17;74.47;100759.69;2568575;30;137090;-42
2022/04/09 09:13:12;;;;;;;;;;;9.40;99.90;;;8.27;75.71;100762.88;2568272;30;138316;-41
2022/04/09 09:15:47;;;;;;;;;;;9.60;99.90;;;8.63;74.77;100770.06;2569746;30;136909;-41
2022/04/09 09:18:33;;;;;;;;;;;9.80;99.90;;;8.90;73.27;100767.47;2568065;30;138833;-42
2022/04/09 09:21:01;;;;;;;;;;;10.00;99.90;;;9.06;72.00;100779.88;2570105;30;137113;-41
2022/04/09 09:23:32;;;;;;;;;;;10.30;99.90;;;9.05;67.91;100778.19;2568682;30;139137;-42
2022/04/09 09:26:01;;;;;;;;;;;10.30;99.90;;;9.07;69.19;100776.13;2568081;30;137898;-42
2022/04/09 09:28:33;;;;;;;;;;;10.40;99.90;;;9.06;72.09;100777.16;2567569;30;139198;-41
2022/04/09 09:31:02;;;;;;;;;;;10.40;99.90;;;9.00;69.58;100779.84;2569908;30;136830;-41
2022/04/09 09:33:29;;;;;;;;;;;10.40;99.90;;;9.02;72.15;100784.06;2568630;30;138618;-42
2022/04/09 09:36:31;;;;;;;;;;;10.40;99.90;;;8.83;70.64;100787.50;2569450;30;138083;-41
2022/04/09 09:39:03;;;;;;;;;;;10.30;99.90;;;8.54;71.28;100790.28;2568922;30;138350;-41
2022/04/09 09:41:30;;;;;;;;;;;10.10;99.90;;;8.37;72.03;100784.28;2569415;30;137975;-41
2022/04/09 09:44:05;;;;;;;;;;;9.90;99.90;;;8.27;70.97;100775.66;2569808;30;138410;-41
2022/04/09 09:46:33;;;;;;;;;;;9.80;99.90;;;8.28;70.47;100786.31;2569311;30;137320;-41
2022/04/09 09:49:00;;;;;;;;;;;9.70;99.90;;;8.24;73.67;100781.50;2569029;30;137308;-42
2022/04/09 09:51:28;;;;;;;;;;;9.70;99.90;;;8.09;71.40;100782.41;2570349;30;137077;-41
2022/04/09 09:54:09;;;;;;;;;;;9.60;99.90;;;8.21;70.45;100783.53;2568343;30;137466;-42
2022/04/09 09:56:37;;;;;;;;;;;9.60;99.90;;;8.19;72.13;100782.06;2568606;30;136950;-40
2022/04/09 09:59:06;;;;;;;;;;;9.50;99.90;;;8.51;73.00;100781.69;2569805;30;138573;-42
2022/04/09 10:01:47;;;;;;;;;;;9.70;99.90;;;8.90;71.65;100781.06;2567529;30;137173;-41
2022/04/09 10:04:15;;;;;;;;;;;10.00;99.90;;;9.39;71.52;100770.09;2570571;30;137210;-43
2022/04/09 10:06:43;;;;;;;;;;;10.40;99.90;;;9.49;68.93;100769.72;2570457;30;137086;-41
2022/04/09 10:09:16;;;;;;;;;;;10.60;99.90;;;9.77;66.54;100769.56;2571080;30;138401;-41
2022/04/09 10:11:49;;;;;;;;;;;10.90;99.90;;;9.84;69.22;100764.13;2568022;30;137591;-42
2022/04/09 10:14:26;;;;;;;;;;;11.00;99.90;;;9.97;64.76;100757.81;2575744;30;138235;-41
2022/04/09 10:16:55;;;;;;;;;;;11.10;99.90;;;9.74;65.85;100797.22;2572560;30;136974;-41
2022/04/09 10:19:23;;;;;;;;;;;11.10;99.90;;;8.60;72.65;100819.38;2571111;30;138017;-41
2022/04/09 10:21:51;;;;;;;;;;;10.50;99.90;;;7.24;78.70;100859.06;2571466;30;137044;-40
2022/04/09 10:24:23;;;;;;;;;;;9.50;99.90;;;6.01;81.22;100849.34;2569959;30;138124;-41
2022/04/09 10:26:56;;;;;;;;;;;8.40;99.90;;;5.10;87.01;100859.84;2571885;30;137790;-40
2022/04/09 10:29:24;;;;;;;;;;;7.40;99.90;;;4.43;90.62;100853.78;2570206;30;138366;-40
2022/04/09 10:31:52;;;;;;;;;;;6.60;99.90;;;4.08;91.59;100855.81;2571364;30;137135;-40
2022/04/09 10:34:20;;;;;;;;;;;6.10;99.90;;;3.99;95.70;100849.59;2569872;30;138190;-40
2022/04/09 10:36:48;;;;;;;;;;;5.90;99.90;;;3.99;96.75;100845.00;2572393;30;137045;-40
2022/04/09 10:39:26;;;;;;;;;;;5.80;99.90;;;3.92;97.22;100843.16;2567289;30;138192;-41
2022/04/09 10:41:54;;;;;;;;;;;5.70;99.90;;;4.03;100.00;100819.34;2571606;30;137425;-41
2022/04/09 10:44:43;;;;;;;;;;;5.70;99.90;;;4.06;99.09;100828.13;2571447;30;139139;-41
2022/04/09 10:47:13;;;;;;;;;;;5.70;99.90;;;4.14;100.00;100828.97;2571914;30;136742;-41
2022/04/09 10:50:00;;;;;;;;;;;5.70;99.90;;;4.21;100.00;100833.69;2570232;30;138377;-41
2022/04/09 10:52:30;;;;;;;;;;;5.80;99.90;;;4.24;100.00;100836.03;2569035;30;136757;-41
2022/04/09 10:55:09;;;;;;;;;;;5.80;99.90;;;4.28;100.00;100835.53;2572823;30;137405;-41
2022/04/09 10:57:47;;;;;;;;;;;5.80;99.90;;;4.36;100.00;100837.41;2572878;30;137136;-41
2022/04/09 11:00:23;;;;;;;;;;;5.90;99.90;;;4.66;100.00;100829.56;2572369;30;138186;-41
2022/04/09 11:03:17;;;;;;;;;;;6.00;99.90;;;5.26;100.00;100838.09;2570274;30;137291;-41
2022/04/09 11:05:45;;;;;;;;;;;6.40;99.90;;;5.78;100.00;100835.75;2570097;30;139103;-41
2022/04/09 11:08:20;;;;;;;;;;;6.90;99.90;;;6.18;100.00;100822.94;2571038;30;137771;-41
2022/04/09 11:10:47;;;;;;;;;;;7.30;99.90;;;6.57;100.00;100822.88;2570959;30;138425;-41
2022/04/09 11:13:15;;;;;;;;;;;7.70;99.90;;;6.88;100.00;100817.28;2571398;30;137854;-41
2022/04/09 11:15:45;;;;;;;;;;;8.00;99.90;;;7.11;98.52;100813.63;2569390;30;138271;-41
2022/04/09 11:18:13;;;;;;;;;;;8.30;99.90;;;7.33;96.36;100819.09;2572208;30;139337;-41
2022/04/09 11:20:40;;;;;;;;;;;8.50;99.90;;;7.34;91.03;100827.03;2570333;30;138716;-41
2022/04/09 11:23:12;;;;;;;;;;;8.60;99.90;;;7.54;90.44;100820.13;2572795;30;137057;-41
2022/04/09 11:25:44;;;;;;;;;;;8.80;99.90;;;7.77;88.72;100814.53;2567685;30;138390;-41
2022/04/09 11:28:19;;;;;;;;;;;9.00;99.90;;;8.07;87.01;100812.50;2570298;30;137109;-41
2022/04/09 11:31:02;;;;;;;;;;;9.30;99.90;;;8.29;80.24;100806.19;2571681;30;138213;-43
2022/04/09 11:33:29;;;;;;;;;;;9.50;99.90;;;8.53;80.77;100802.19;2568233;30;137568;-42
2022/04/09 11:35:59;;;;;;;;;;;9.70;99.90;;;8.72;79.10;100803.34;2569229;30;137361;-41
2022/04/09 11:38:27;;;;;;;;;;;9.90;99.90;;;8.87;72.74;100799.66;2570494;30;137022;-41
2022/04/09 11:40:56;;;;;;;;;;;10.20;99.90;;;9.02;69.76;100803.09;2569752;30;139152;-41
2022/04/09 11:43:24;;;;;;;;;;;10.30;99.90;;;9.21;71.67;100803.38;2568932;30;136915;-41
2022/04/09 11:45:52;;;;;;;;;;;10.50;99.90;;;9.37;66.90;100804.88;2568330;30;138259;-43
2022/04/09 11:48:22;;;;;;;;;;;10.70;99.90;;;9.50;62.61;100817.69;2569483;30;136954;-42
2022/04/09 11:50:49;;;;;;;;;;;10.80;99.90;;;9.57;64.71;100807.69;2569576;30;138983;-42
2022/04/09 11:53:19;;;;;;;;;;;10.90;99.90;;;9.72;63.24;100807.50;2570123;30;136874;-41
2022/04/09 11:55:48;;;;;;;;;;;11.00;99.90;;;9.97;64.87;100811.47;2569123;30;137394;-41
2022/04/09 11:58:19;;;;;;;;;;;11.20;99.90;;;10.31;66.56;100812.31;2571259;30;136990;-42
2022/04/09 12:00:47;;;;;;;;;;;11.40;99.90;;;10.46;58.41;100809.38;2569628;30;137793;-42
2022/04/09 12:03:15;;;;;;;;;;;11.60;98.20;;;10.71;60.66;100805.97;2569752;30;137098;-43
2022/04/09 12:05:47;;;;;;;;;;;11.80;99.40;;;10.67;59.54;100805.59;2567432;30;138441;-41
2022/04/09 12:08:18;;;;;;;;;;;11.90;97.60;;;10.46;58.94;100804.78;2568611;30;137071;-42
2022/04/09 12:11:02;;;;;;;;;;;11.90;97.70;;;9.93;52.66;100830.97;2566597;30;138014;-42
2022/04/09 12:13:34;;;;;;;;;;;11.60;94.90;;;9.87;55.66;100833.69;2569726;30;137808;-41
2022/04/09 12:16:10;;;;;;;;;;;11.40;94.10;;;9.97;56.67;100836.00;2571984;30;137712;-42
2022/04/09 12:18:39;;;;;;;;;;;11.40;95.50;;;10.32;56.89;100820.28;2569286;30;137232;-41
2022/04/09 12:21:26;;;;;;;;;;;11.50;96.40;;;10.77;65.07;100832.44;2568327;30;138244;-41
2022/04/09 12:24:06;;;;;;;;;;;11.80;99.90;;;10.97;53.24;100817.88;2568071;30;136680;-41
2022/04/09 12:26:45;;;;;;;;;;;12.10;93.60;;;11.17;52.24;100832.28;2569890;30;138941;-42
2022/04/09 12:29:22;;;;;;;;;;;12.40;92.20;;;11.54;54.20;100828.13;2569628;30;136677;-41
2022/04/09 12:31:52;;;;;;;;;;;12.70;95.90;;;11.57;53.72;100824.97;2566555;30;138167;-41
2022/04/09 12:34:20;;;;;;;;;;;12.80;93.20;;;11.12;56.11;100814.88;2569588;30;137269;-41
2022/04/09 12:37:06;;;;;;;;;;;12.60;93.70;;;10.94;57.85;100827.34;2567619;30;137687;-41
2022/04/09 12:39:36;;;;;;;;;;;12.40;95.30;;;11.20;58.25;100831.03;2567455;30;137204;-42
2022/04/09 12:42:04;;;;;;;;;;;12.50;96.00;;;11.18;57.86;100822.22;2571341;30;138494;-41
2022/04/09 12:44:36;;;;;;;;;;;12.50;95.50;;;11.11;56.56;100829.59;2571519;30;137061;-42
2022/04/09 12:47:05;;;;;;;;;;;12.50;94.80;;;10.67;58.11;100821.97;2567816;30;139223;-41
2022/04/09 12:49:34;;;;;;;;;;;12.20;94.90;;;10.49;53.17;100820.72;2571247;30;137057;-41
2022/04/09 12:52:03;;;;;;;;;;;12.10;92.00;;;10.45;53.32;100819.47;2569075;30;139509;-41
2022/04/09 12:54:32;;;;;;;;;;;11.90;92.20;;;10.79;52.49;100811.22;2568190;30;136880;-41
2022/04/09 12:57:05;;;;;;;;;;;12.00;92.00;;;11.33;53.48;100824.69;2569403;30;137602;-41
2022/04/09 12:59:34;;;;;;;;;;;12.40;92.40;;;11.47;40.47;100830.91;2569565;30;138192;-42
2022/04/09 13:02:02;;;;;;;;;;;12.60;75.80;;;11.73;46.02;100820.88;2567414;30;138706;-41
2022/04/09 13:04:31;;;;;;;;;;;12.80;83.30;;;11.92;45.01;100819.88;2571504;30;137058;-42
2022/04/09 13:06:58;;;;;;;;;;;13.10;82.80;;;11.99;41.32;100821.75;2570318;30;138441;-42
2022/04/09 13:09:26;;;;;;;;;;;13.20;76.60;;;12.05;38.70;100826.34;2569208;30;136923;-42
2022/04/09 13:11:54;;;;;;;;;;;13.30;72.30;;;12.18;42.15;100831.69;2569785;30;137612;-41
2022/04/09 13:14:21;;;;;;;;;;;13.40;77.90;;;12.27;36.45;100825.97;2570229;30;137061;-41
2022/04/09 13:16:51;;;;;;;;;;;13.50;68.40;;;12.43;37.88;100822.66;2569521;30;138224;-42
2022/04/09 13:19:18;;;;;;;;;;;13.60;70.00;;;12.75;40.35;100838.13;2569751;30;137237;-42
2022/04/09 13:21:46;;;;;;;;;;;13.90;73.10;;;12.88;37.23;100828.94;2570700;30;139211;-42
2022/04/09 13:24:14;;;;;;;;;;;14.00;68.90;;;12.88;39.39;100823.47;2570371;30;137303;-42
2022/04/09 13:26:41;;;;;;;;;;;14.10;71.80;;;13.09;40.56;100833.97;2568954;30;137917;-41
2022/04/09 13:29:09;;;;;;;;;;;14.20;73.30;;;13.31;37.77;100844.44;2568123;30;137177;-42
2022/04/09 13:31:36;;;;;;;;;;;14.40;69.20;;;12.98;37.41;100839.38;2570061;30;137336;-41
2022/04/09 13:34:04;;;;;;;;;;;14.30;68.50;;;12.98;39.69;100839.38;2570433;30;137181;-42
2022/04/09 13:36:32;;;;;;;;;;;14.30;71.00;;;12.94;37.94;100845.31;2570070;30;137873;-41
2022/04/09 13:38:59;;;;;;;;;;;14.30;68.10;;;12.87;39.53;100846.44;2572734;30;137124;-41
2022/04/09 13:41:48;;;;;;;;;;;14.20;70.60;;;12.16;49.46;100847.50;2566431;30;139203;-42
2022/04/09 13:44:16;;;;;;;;;;;13.70;83.00;;;12.17;48.58;100827.28;2582155;30;138123;-40
2022/04/09 13:46:43;;;;;;;;;;;13.60;83.10;;;11.55;50.15;100852.50;2566883;30;138387;-40
2022/04/09 13:49:11;;;;;;;;;;;13.30;83.90;;;11.57;51.18;100864.03;2568361;30;137072;-40
2022/04/09 13:51:38;;;;;;;;;;;13.00;86.70;;;11.90;49.20;100867.66;2568909;30;138996;-40
2022/04/09 13:54:06;;;;;;;;;;;13.10;84.90;;;11.87;52.91;100868.91;2568281;30;136674;-40
2022/04/09 13:56:33;;;;;;;;;;;13.10;90.10;;;11.83;51.42;100877.78;2568395;30;139349;-41
2022/04/09 13:59:02;;;;;;;;;;;13.10;88.90;;;11.93;51.08;100883.63;2567433;30;137083;-40
2022/04/09 14:01:31;;;;;;;;;;;13.20;88.10;;;11.90;50.84;100873.94;2567730;30;137331;-40
2022/04/09 14:03:58;;;;;;;;;;;13.20;88.60;;;12.02;52.57;100886.94;2568551;30;137041;-40
2022/04/09 14:06:26;;;;;;;;;;;13.30;90.70;;;11.88;54.54;100887.00;2567018;30;138255;-40
2022/04/09 14:08:54;;;;;;;;;;;13.20;91.20;;;11.90;55.05;100893.06;2569587;30;137231;-40
2022/04/09 14:11:22;;;;;;;;;;;13.20;92.10;;;11.72;52.50;100895.72;2568460;30;137321;-40
2022/04/09 14:13:49;;;;;;;;;;;13.10;90.80;;;11.76;52.36;100880.56;2567318;30;137051;-40
2022/04/09 14:16:17;;;;;;;;;;;13.00;90.60;;;11.97;47.74;100893.03;2570042;30;138412;-40
2022/04/09 14:18:44;;;;;;;;;;;13.10;86.00;;;11.94;47.45;100883.41;2568707;30;136984;-40
2022/04/09 14:21:12;;;;;;;;;;;13.20;83.80;;;11.80;44.13;100892.72;2566122;30;138404;-40
2022/04/09 14:23:40;;;;;;;;;;;13.10;78.60;;;11.90;43.24;100889.53;2569623;30;137199;-40
2022/04/09 14:26:08;;;;;;;;;;;13.20;78.10;;;12.08;46.07;100902.47;2567603;30;137929;-40